sensor_id;sensor_type;location;lat;lon;timestamp;P1;durP1;ratioP1;P2;durP2;ratioP2
23684;SDS011;12020;51.384;6.908;2023-05-10T00:00:39;12.05;;;10.82;;
23684;SDS011;12020;51.384;6.908;2023-05-10T00:03:05;12.35;;;11.15;;
23684;SDS011;12020;51.384;6.908;2023-05-10T00:05:31;11.60;;;10.40;;
23684;SDS011;12020;51.384;6.908;2023-05-10T00:07:59;12.18;;;10.88;;
23684;SDS011;12020;51.384;6.908;2023-05-10T00:10:25;11.60;;;10.40;;
23684;SDS011;12020;51.384;6.908;2023-05-10T00:12:52;11.82;;;10.63;;
23684;SDS011;12020;51.384;6.908;2023-05-10T00:15:18;11.75;;;10.30;;
23684;SDS011;12020;51.384;6.908;2023-05-10T00:17:44;11.45;;;10.25;;
23684;SDS011;12020;51.384;6.908;2023-05-10T00:20:10;11.70;;;10.50;;
23684;SDS011;12020;51.384;6.908;2023-05-10T00:22:36;12.30;;;11.10;;
23684;SDS011;12020;51.384;6.908;2023-05-10T00:25:01;13.30;;;11.90;;
23684;SDS011;12020;51.384;6.908;2023-05-10T00:27:28;12.77;;;11.48;;
23684;SDS011;12020;51.384;6.908;2023-05-10T00:29:53;13.13;;;11.82;;
23684;SDS011;12020;51.384;6.908;2023-05-10T00:32:20;12.18;;;10.95;;
23684;SDS011;12020;51.384;6.908;2023-05-10T00:34:46;12.45;;;11.23;;
23684;SDS011;12020;51.384;6.908;2023-05-10T00:37:12;12.27;;;11.07;;
23684;SDS011;12020;51.384;6.908;2023-05-10T00:39:39;11.93;;;10.75;;
23684;SDS011;12020;51.384;6.908;2023-05-10T00:42:05;12.38;;;11.15;;
23684;SDS011;12020;51.384;6.908;2023-05-10T00:44:31;12.02;;;10.82;;
23684;SDS011;12020;51.384;6.908;2023-05-10T00:46:58;11.30;;;10.20;;
23684;SDS011;12020;51.384;6.908;2023-05-10T00:49:24;11.80;;;10.60;;
23684;SDS011;12020;51.384;6.908;2023-05-10T00:51:50;12.03;;;10.83;;
23684;SDS011;12020;51.384;6.908;2023-05-10T00:54:16;11.43;;;10.32;;
23684;SDS011;12020;51.384;6.908;2023-05-10T00:56:42;11.18;;;10.00;;
23684;SDS011;12020;51.384;6.908;2023-05-10T00:59:14;11.17;;;10.07;;
23684;SDS011;12020;51.384;6.908;2023-05-10T01:01:42;11.40;;;10.23;;
23684;SDS011;12020;51.384;6.908;2023-05-10T01:04:08;11.82;;;10.63;;
23684;SDS011;12020;51.384;6.908;2023-05-10T01:06:36;13.15;;;10.82;;
23684;SDS011;12020;51.384;6.908;2023-05-10T01:09:03;12.23;;;10.73;;
23684;SDS011;12020;51.384;6.908;2023-05-10T01:11:29;10.65;;;9.60;;
23684;SDS011;12020;51.384;6.908;2023-05-10T01:13:56;11.65;;;10.55;;
23684;SDS011;12020;51.384;6.908;2023-05-10T01:16:23;12.05;;;10.75;;
23684;SDS011;12020;51.384;6.908;2023-05-10T01:18:50;12.80;;;11.40;;
23684;SDS011;12020;51.384;6.908;2023-05-10T01:24:09;13.10;;;11.63;;
23684;SDS011;12020;51.384;6.908;2023-05-10T01:30:01;12.18;;;10.93;;
23684;SDS011;12020;51.384;6.908;2023-05-10T01:41:17;12.98;;;11.65;;
23684;SDS011;12020;51.384;6.908;2023-05-10T01:44:05;13.27;;;11.88;;
23684;SDS011;12020;51.384;6.908;2023-05-10T01:46:42;12.63;;;11.32;;
23684;SDS011;12020;51.384;6.908;2023-05-10T01:49:14;12.57;;;11.20;;
23684;SDS011;12020;51.384;6.908;2023-05-10T01:51:50;12.68;;;11.38;;
23684;SDS011;12020;51.384;6.908;2023-05-10T01:54:34;13.55;;;12.15;;
23684;SDS011;12020;51.384;6.908;2023-05-10T01:57:04;14.55;;;12.07;;
23684;SDS011;12020;51.384;6.908;2023-05-10T01:59:36;13.13;;;11.73;;
23684;SDS011;12020;51.384;6.908;2023-05-10T02:02:07;14.68;;;12.52;;
23684;SDS011;12020;51.384;6.908;2023-05-10T02:04:38;14.63;;;12.05;;
23684;SDS011;12020;51.384;6.908;2023-05-10T02:07:05;14.07;;;12.63;;
23684;SDS011;12020;51.384;6.908;2023-05-10T02:09:40;14.18;;;12.60;;
23684;SDS011;12020;51.384;6.908;2023-05-10T02:12:09;13.90;;;12.40;;
23684;SDS011;12020;51.384;6.908;2023-05-10T02:14:38;14.00;;;12.30;;
23684;SDS011;12020;51.384;6.908;2023-05-10T02:17:06;14.25;;;12.75;;
23684;SDS011;12020;51.384;6.908;2023-05-10T02:19:33;14.00;;;12.57;;
23684;SDS011;12020;51.384;6.908;2023-05-10T02:22:01;14.80;;;12.70;;
23684;SDS011;12020;51.384;6.908;2023-05-10T02:24:28;15.00;;;12.98;;
23684;SDS011;12020;51.384;6.908;2023-05-10T02:26:55;13.57;;;12.15;;
23684;SDS011;12020;51.384;6.908;2023-05-10T02:29:23;14.15;;;12.70;;
23684;SDS011;12020;51.384;6.908;2023-05-10T02:31:51;13.48;;;12.07;;
23684;SDS011;12020;51.384;6.908;2023-05-10T02:34:19;13.80;;;12.30;;
23684;SDS011;12020;51.384;6.908;2023-05-10T02:36:48;13.25;;;11.85;;
23684;SDS011;12020;51.384;6.908;2023-05-10T02:39:15;12.93;;;11.60;;
23684;SDS011;12020;51.384;6.908;2023-05-10T02:41:43;12.77;;;11.48;;
23684;SDS011;12020;51.384;6.908;2023-05-10T02:44:12;12.32;;;11.02;;
23684;SDS011;12020;51.384;6.908;2023-05-10T02:46:42;12.57;;;11.27;;
23684;SDS011;12020;51.384;6.908;2023-05-10T02:49:08;13.73;;;11.52;;
23684;SDS011;12020;51.384;6.908;2023-05-10T02:51:35;13.07;;;11.68;;
23684;SDS011;12020;51.384;6.908;2023-05-10T02:54:11;15.23;;;12.77;;
23684;SDS011;12020;51.384;6.908;2023-05-10T02:56:42;15.32;;;13.00;;
23684;SDS011;12020;51.384;6.908;2023-05-10T02:59:14;15.77;;;13.23;;
23684;SDS011;12020;51.384;6.908;2023-05-10T03:01:40;15.83;;;13.60;;
23684;SDS011;12020;51.384;6.908;2023-05-10T03:04:06;16.13;;;14.30;;
23684;SDS011;12020;51.384;6.908;2023-05-10T03:06:32;15.13;;;13.37;;
23684;SDS011;12020;51.384;6.908;2023-05-10T03:08:58;15.98;;;14.25;;
23684;SDS011;12020;51.384;6.908;2023-05-10T03:11:43;15.35;;;13.75;;
23684;SDS011;12020;51.384;6.908;2023-05-10T03:17:06;17.65;;;14.93;;
23684;SDS011;12020;51.384;6.908;2023-05-10T03:19:43;17.97;;;15.53;;
23684;SDS011;12020;51.384;6.908;2023-05-10T03:22:18;18.20;;;15.52;;
23684;SDS011;12020;51.384;6.908;2023-05-10T03:25:06;19.50;;;15.90;;
23684;SDS011;12020;51.384;6.908;2023-05-10T03:27:36;17.60;;;15.70;;
23684;SDS011;12020;51.384;6.908;2023-05-10T03:30:04;19.17;;;16.38;;
23684;SDS011;12020;51.384;6.908;2023-05-10T03:32:32;19.70;;;16.35;;
23684;SDS011;12020;51.384;6.908;2023-05-10T03:34:59;19.27;;;15.40;;
23684;SDS011;12020;51.384;6.908;2023-05-10T03:37:25;18.85;;;15.48;;
23684;SDS011;12020;51.384;6.908;2023-05-10T03:39:52;18.50;;;15.40;;
23684;SDS011;12020;51.384;6.908;2023-05-10T03:42:18;18.60;;;15.30;;
23684;SDS011;12020;51.384;6.908;2023-05-10T03:44:44;18.25;;;15.65;;
23684;SDS011;12020;51.384;6.908;2023-05-10T03:47:10;18.77;;;15.48;;
23684;SDS011;12020;51.384;6.908;2023-05-10T03:49:37;19.30;;;15.68;;
23684;SDS011;12020;51.384;6.908;2023-05-10T03:52:03;19.90;;;16.15;;
23684;SDS011;12020;51.384;6.908;2023-05-10T03:54:30;19.58;;;16.63;;
23684;SDS011;12020;51.384;6.908;2023-05-10T03:56:57;18.60;;;16.20;;
23684;SDS011;12020;51.384;6.908;2023-05-10T03:59:23;18.65;;;15.90;;
23684;SDS011;12020;51.384;6.908;2023-05-10T04:01:49;18.80;;;16.00;;
23684;SDS011;12020;51.384;6.908;2023-05-10T04:04:15;21.03;;;16.30;;
23684;SDS011;12020;51.384;6.908;2023-05-10T04:06:43;19.87;;;16.33;;
23684;SDS011;12020;51.384;6.908;2023-05-10T04:09:09;20.02;;;16.08;;
23684;SDS011;12020;51.384;6.908;2023-05-10T04:11:35;20.92;;;17.13;;
23684;SDS011;12020;51.384;6.908;2023-05-10T04:14:01;20.47;;;17.23;;
23684;SDS011;12020;51.384;6.908;2023-05-10T04:16:27;22.07;;;17.40;;
23684;SDS011;12020;51.384;6.908;2023-05-10T04:18:52;22.63;;;18.30;;
23684;SDS011;12020;51.384;6.908;2023-05-10T04:21:19;22.20;;;18.08;;
23684;SDS011;12020;51.384;6.908;2023-05-10T04:23:45;24.13;;;18.52;;
23684;SDS011;12020;51.384;6.908;2023-05-10T04:26:11;23.17;;;18.63;;
23684;SDS011;12020;51.384;6.908;2023-05-10T04:28:37;23.80;;;18.38;;
23684;SDS011;12020;51.384;6.908;2023-05-10T04:31:04;24.30;;;18.30;;
23684;SDS011;12020;51.384;6.908;2023-05-10T04:33:49;22.80;;;18.13;;
23684;SDS011;12020;51.384;6.908;2023-05-10T04:36:15;23.37;;;18.17;;
23684;SDS011;12020;51.384;6.908;2023-05-10T04:38:41;21.73;;;18.00;;
23684;SDS011;12020;51.384;6.908;2023-05-10T04:41:08;22.33;;;18.25;;
23684;SDS011;12020;51.384;6.908;2023-05-10T04:43:36;23.17;;;18.77;;
23684;SDS011;12020;51.384;6.908;2023-05-10T04:46:02;24.07;;;19.90;;
23684;SDS011;12020;51.384;6.908;2023-05-10T04:48:29;25.00;;;19.52;;
23684;SDS011;12020;51.384;6.908;2023-05-10T04:50:55;24.30;;;19.13;;
23684;SDS011;12020;51.384;6.908;2023-05-10T04:53:22;24.17;;;19.58;;
23684;SDS011;12020;51.384;6.908;2023-05-10T04:55:48;26.48;;;20.55;;
23684;SDS011;12020;51.384;6.908;2023-05-10T04:58:14;26.83;;;20.93;;
23684;SDS011;12020;51.384;6.908;2023-05-10T05:00:40;27.02;;;21.08;;
23684;SDS011;12020;51.384;6.908;2023-05-10T05:03:07;26.02;;;20.85;;
23684;SDS011;12020;51.384;6.908;2023-05-10T05:05:33;28.38;;;21.13;;
23684;SDS011;12020;51.384;6.908;2023-05-10T05:07:58;28.92;;;22.20;;
23684;SDS011;12020;51.384;6.908;2023-05-10T05:10:24;28.93;;;22.13;;
23684;SDS011;12020;51.384;6.908;2023-05-10T05:12:50;27.70;;;22.05;;
23684;SDS011;12020;51.384;6.908;2023-05-10T05:15:16;29.35;;;22.17;;
23684;SDS011;12020;51.384;6.908;2023-05-10T05:17:42;30.35;;;23.15;;
23684;SDS011;12020;51.384;6.908;2023-05-10T05:20:08;30.23;;;23.77;;
23684;SDS011;12020;51.384;6.908;2023-05-10T05:22:38;30.87;;;23.60;;
23684;SDS011;12020;51.384;6.908;2023-05-10T05:25:04;32.03;;;24.63;;
23684;SDS011;12020;51.384;6.908;2023-05-10T05:27:32;30.27;;;22.52;;
23684;SDS011;12020;51.384;6.908;2023-05-10T05:29:59;29.63;;;23.23;;
23684;SDS011;12020;51.384;6.908;2023-05-10T05:32:25;30.37;;;22.73;;
23684;SDS011;12020;51.384;6.908;2023-05-10T05:34:51;29.97;;;23.20;;
23684;SDS011;12020;51.384;6.908;2023-05-10T05:37:18;29.40;;;23.17;;
23684;SDS011;12020;51.384;6.908;2023-05-10T05:39:45;32.53;;;24.08;;
23684;SDS011;12020;51.384;6.908;2023-05-10T05:42:15;29.38;;;23.63;;
23684;SDS011;12020;51.384;6.908;2023-05-10T05:44:44;33.08;;;24.27;;
23684;SDS011;12020;51.384;6.908;2023-05-10T05:47:10;31.17;;;23.55;;
23684;SDS011;12020;51.384;6.908;2023-05-10T05:49:36;30.98;;;23.55;;
23684;SDS011;12020;51.384;6.908;2023-05-10T05:52:02;31.97;;;23.87;;
23684;SDS011;12020;51.384;6.908;2023-05-10T05:54:29;32.40;;;24.40;;
23684;SDS011;12020;51.384;6.908;2023-05-10T05:56:59;32.95;;;24.98;;
23684;SDS011;12020;51.384;6.908;2023-05-10T05:59:26;31.25;;;24.25;;
23684;SDS011;12020;51.384;6.908;2023-05-10T06:01:52;31.42;;;24.77;;
23684;SDS011;12020;51.384;6.908;2023-05-10T06:04:18;31.48;;;24.55;;
23684;SDS011;12020;51.384;6.908;2023-05-10T06:06:45;33.63;;;25.42;;
23684;SDS011;12020;51.384;6.908;2023-05-10T06:09:11;32.33;;;25.55;;
23684;SDS011;12020;51.384;6.908;2023-05-10T06:11:38;32.15;;;24.85;;
23684;SDS011;12020;51.384;6.908;2023-05-10T06:14:04;31.35;;;24.48;;
23684;SDS011;12020;51.384;6.908;2023-05-10T06:16:31;31.75;;;24.52;;
23684;SDS011;12020;51.384;6.908;2023-05-10T06:18:57;33.33;;;25.30;;
23684;SDS011;12020;51.384;6.908;2023-05-10T06:21:24;34.80;;;27.08;;
23684;SDS011;12020;51.384;6.908;2023-05-10T06:23:50;37.20;;;27.35;;
23684;SDS011;12020;51.384;6.908;2023-05-10T06:26:17;34.00;;;25.90;;
23684;SDS011;12020;51.384;6.908;2023-05-10T06:28:42;36.63;;;27.47;;
23684;SDS011;12020;51.384;6.908;2023-05-10T06:31:09;35.00;;;27.08;;
23684;SDS011;12020;51.384;6.908;2023-05-10T06:33:36;34.37;;;27.20;;
23684;SDS011;12020;51.384;6.908;2023-05-10T06:36:03;37.35;;;26.88;;
23684;SDS011;12020;51.384;6.908;2023-05-10T06:38:30;37.92;;;28.15;;
23684;SDS011;12020;51.384;6.908;2023-05-10T06:40:56;38.20;;;28.73;;
23684;SDS011;12020;51.384;6.908;2023-05-10T06:43:22;36.53;;;27.98;;
23684;SDS011;12020;51.384;6.908;2023-05-10T06:45:48;39.50;;;27.92;;
23684;SDS011;12020;51.384;6.908;2023-05-10T06:48:13;43.50;;;29.38;;
23684;SDS011;12020;51.384;6.908;2023-05-10T06:50:40;41.13;;;28.90;;
23684;SDS011;12020;51.384;6.908;2023-05-10T06:53:06;41.40;;;28.98;;
23684;SDS011;12020;51.384;6.908;2023-05-10T06:55:33;41.07;;;28.33;;
23684;SDS011;12020;51.384;6.908;2023-05-10T06:57:59;40.80;;;28.25;;
23684;SDS011;12020;51.384;6.908;2023-05-10T07:00:25;44.27;;;28.90;;
23684;SDS011;12020;51.384;6.908;2023-05-10T07:02:52;26.00;;;18.73;;
23684;SDS011;12020;51.384;6.908;2023-05-10T07:05:18;39.95;;;27.00;;
23684;SDS011;12020;51.384;6.908;2023-05-10T07:07:43;38.93;;;27.40;;
23684;SDS011;12020;51.384;6.908;2023-05-10T07:10:09;38.67;;;26.30;;
23684;SDS011;12020;51.384;6.908;2023-05-10T07:12:35;39.72;;;26.80;;
23684;SDS011;12020;51.384;6.908;2023-05-10T07:15:05;38.47;;;26.17;;
23684;SDS011;12020;51.384;6.908;2023-05-10T07:17:33;38.95;;;26.13;;
23684;SDS011;12020;51.384;6.908;2023-05-10T07:19:59;38.20;;;25.58;;
23684;SDS011;12020;51.384;6.908;2023-05-10T07:22:25;38.85;;;26.13;;
23684;SDS011;12020;51.384;6.908;2023-05-10T07:24:52;40.78;;;26.92;;
23684;SDS011;12020;51.384;6.908;2023-05-10T07:27:19;37.25;;;26.20;;
23684;SDS011;12020;51.384;6.908;2023-05-10T07:29:45;38.15;;;26.27;;
23684;SDS011;12020;51.384;6.908;2023-05-10T07:32:11;39.00;;;26.27;;
23684;SDS011;12020;51.384;6.908;2023-05-10T07:34:37;40.58;;;26.23;;
23684;SDS011;12020;51.384;6.908;2023-05-10T07:37:03;40.57;;;26.37;;
23684;SDS011;12020;51.384;6.908;2023-05-10T07:39:29;40.97;;;26.97;;
23684;SDS011;12020;51.384;6.908;2023-05-10T07:41:55;39.08;;;26.98;;
23684;SDS011;12020;51.384;6.908;2023-05-10T07:44:32;38.17;;;25.10;;
23684;SDS011;12020;51.384;6.908;2023-05-10T07:46:58;38.30;;;25.25;;
23684;SDS011;12020;51.384;6.908;2023-05-10T07:49:25;32.63;;;22.00;;
23684;SDS011;12020;51.384;6.908;2023-05-10T07:51:51;33.77;;;22.00;;
23684;SDS011;12020;51.384;6.908;2023-05-10T08:00:07;33.25;;;21.88;;
23684;SDS011;12020;51.384;6.908;2023-05-10T08:02:35;31.85;;;22.35;;
23684;SDS011;12020;51.384;6.908;2023-05-10T08:05:01;33.23;;;21.70;;
23684;SDS011;12020;51.384;6.908;2023-05-10T08:07:28;29.15;;;20.40;;
23684;SDS011;12020;51.384;6.908;2023-05-10T08:09:54;29.00;;;21.08;;
23684;SDS011;12020;51.384;6.908;2023-05-10T08:12:22;26.23;;;20.83;;
23684;SDS011;12020;51.384;6.908;2023-05-10T08:14:47;28.90;;;21.37;;
23684;SDS011;12020;51.384;6.908;2023-05-10T08:17:14;27.70;;;19.67;;
23684;SDS011;12020;51.384;6.908;2023-05-10T08:19:39;20.83;;;15.32;;
23684;SDS011;12020;51.384;6.908;2023-05-10T08:22:07;26.85;;;20.27;;
23684;SDS011;12020;51.384;6.908;2023-05-10T08:24:36;25.90;;;19.65;;
23684;SDS011;12020;51.384;6.908;2023-05-10T08:27:06;25.90;;;19.95;;
23684;SDS011;12020;51.384;6.908;2023-05-10T08:29:32;28.27;;;20.13;;
23684;SDS011;12020;51.384;6.908;2023-05-10T08:31:59;27.02;;;19.95;;
23684;SDS011;12020;51.384;6.908;2023-05-10T08:34:26;27.10;;;19.92;;
23684;SDS011;12020;51.384;6.908;2023-05-10T08:36:52;31.20;;;21.98;;
23684;SDS011;12020;51.384;6.908;2023-05-10T08:39:18;32.15;;;22.27;;
23684;SDS011;12020;51.384;6.908;2023-05-10T08:41:44;32.90;;;22.88;;
23684;SDS011;12020;51.384;6.908;2023-05-10T08:44:11;34.17;;;22.88;;
23684;SDS011;12020;51.384;6.908;2023-05-10T08:46:37;36.67;;;24.58;;
23684;SDS011;12020;51.384;6.908;2023-05-10T08:49:09;38.85;;;25.33;;
23684;SDS011;12020;51.384;6.908;2023-05-10T08:51:38;39.35;;;25.75;;
23684;SDS011;12020;51.384;6.908;2023-05-10T08:54:07;38.15;;;25.55;;
23684;SDS011;12020;51.384;6.908;2023-05-10T08:56:34;40.07;;;26.07;;
23684;SDS011;12020;51.384;6.908;2023-05-10T08:58:59;37.10;;;25.33;;
23684;SDS011;12020;51.384;6.908;2023-05-10T09:01:26;36.92;;;25.45;;
23684;SDS011;12020;51.384;6.908;2023-05-10T09:03:52;38.67;;;25.65;;
23684;SDS011;12020;51.384;6.908;2023-05-10T09:06:19;38.10;;;26.13;;
23684;SDS011;12020;51.384;6.908;2023-05-10T09:08:45;38.95;;;26.40;;
23684;SDS011;12020;51.384;6.908;2023-05-10T09:11:11;37.65;;;26.50;;
23684;SDS011;12020;51.384;6.908;2023-05-10T09:13:38;37.38;;;26.30;;
23684;SDS011;12020;51.384;6.908;2023-05-10T09:16:04;35.78;;;25.17;;
23684;SDS011;12020;51.384;6.908;2023-05-10T09:18:30;39.28;;;26.58;;
23684;SDS011;12020;51.384;6.908;2023-05-10T09:20:56;38.80;;;26.48;;
23684;SDS011;12020;51.384;6.908;2023-05-10T09:23:24;35.42;;;25.33;;
23684;SDS011;12020;51.384;6.908;2023-05-10T09:26:05;34.25;;;24.38;;
23684;SDS011;12020;51.384;6.908;2023-05-10T09:28:54;31.07;;;22.73;;
23684;SDS011;12020;51.384;6.908;2023-05-10T09:31:19;32.95;;;23.38;;
23684;SDS011;12020;51.384;6.908;2023-05-10T09:33:46;31.58;;;23.58;;
23684;SDS011;12020;51.384;6.908;2023-05-10T09:36:13;28.20;;;22.17;;
23684;SDS011;12020;51.384;6.908;2023-05-10T09:41:22;29.43;;;22.57;;
23684;SDS011;12020;51.384;6.908;2023-05-10T09:43:48;27.98;;;22.67;;
23684;SDS011;12020;51.384;6.908;2023-05-10T09:46:14;28.33;;;22.27;;
23684;SDS011;12020;51.384;6.908;2023-05-10T09:48:45;28.13;;;21.85;;
23684;SDS011;12020;51.384;6.908;2023-05-10T09:51:22;27.90;;;21.38;;
23684;SDS011;12020;51.384;6.908;2023-05-10T09:54:08;24.10;;;19.40;;
23684;SDS011;12020;51.384;6.908;2023-05-10T09:56:42;24.37;;;19.07;;
23684;SDS011;12020;51.384;6.908;2023-05-10T09:59:19;22.10;;;17.85;;
23684;SDS011;12020;51.384;6.908;2023-05-10T10:01:52;23.17;;;18.80;;
23684;SDS011;12020;51.384;6.908;2023-05-10T10:04:20;22.95;;;18.92;;
23684;SDS011;12020;51.384;6.908;2023-05-10T10:06:46;21.85;;;17.58;;
23684;SDS011;12020;51.384;6.908;2023-05-10T10:09:24;21.00;;;17.40;;
23684;SDS011;12020;51.384;6.908;2023-05-10T10:11:50;19.92;;;17.08;;
23684;SDS011;12020;51.384;6.908;2023-05-10T10:14:18;20.67;;;17.05;;
23684;SDS011;12020;51.384;6.908;2023-05-10T10:16:44;20.02;;;17.30;;
23684;SDS011;12020;51.384;6.908;2023-05-10T10:19:11;18.77;;;16.35;;
23684;SDS011;12020;51.384;6.908;2023-05-10T10:21:37;19.58;;;17.20;;
23684;SDS011;12020;51.384;6.908;2023-05-10T10:24:03;21.05;;;17.25;;
23684;SDS011;12020;51.384;6.908;2023-05-10T10:26:33;21.33;;;16.50;;
23684;SDS011;12020;51.384;6.908;2023-05-10T10:34:53;21.52;;;17.75;;
23684;SDS011;12020;51.384;6.908;2023-05-10T10:37:20;21.00;;;17.55;;
23684;SDS011;12020;51.384;6.908;2023-05-10T10:39:48;20.08;;;17.88;;
23684;SDS011;12020;51.384;6.908;2023-05-10T10:42:15;22.45;;;18.17;;
23684;SDS011;12020;51.384;6.908;2023-05-10T10:45:16;22.60;;;19.20;;
23684;SDS011;12020;51.384;6.908;2023-05-10T10:47:42;21.58;;;19.10;;
23684;SDS011;12020;51.384;6.908;2023-05-10T10:50:12;21.48;;;18.33;;
23684;SDS011;12020;51.384;6.908;2023-05-10T10:52:42;20.30;;;18.10;;
23684;SDS011;12020;51.384;6.908;2023-05-10T10:55:19;19.55;;;17.27;;
23684;SDS011;12020;51.384;6.908;2023-05-10T10:57:51;20.05;;;16.92;;
23684;SDS011;12020;51.384;6.908;2023-05-10T11:00:33;21.30;;;17.80;;
23684;SDS011;12020;51.384;6.908;2023-05-10T11:03:05;22.10;;;18.00;;
23684;SDS011;12020;51.384;6.908;2023-05-10T11:07:59;22.70;;;19.00;;
23684;SDS011;12020;51.384;6.908;2023-05-10T11:10:32;21.02;;;18.73;;
23684;SDS011;12020;51.384;6.908;2023-05-10T11:13:01;20.75;;;18.35;;
23684;SDS011;12020;51.384;6.908;2023-05-10T11:15:31;18.88;;;16.80;;
23684;SDS011;12020;51.384;6.908;2023-05-10T11:17:59;20.47;;;17.80;;
23684;SDS011;12020;51.384;6.908;2023-05-10T11:20:41;18.45;;;15.27;;
23684;SDS011;12020;51.384;6.908;2023-05-10T11:23:12;16.63;;;14.80;;
23684;SDS011;12020;51.384;6.908;2023-05-10T11:25:44;17.48;;;15.50;;
23684;SDS011;12020;51.384;6.908;2023-05-10T11:28:13;17.95;;;15.07;;
23684;SDS011;12020;51.384;6.908;2023-05-10T11:30:39;17.65;;;15.27;;
23684;SDS011;12020;51.384;6.908;2023-05-10T11:33:07;17.83;;;14.37;;
23684;SDS011;12020;51.384;6.908;2023-05-10T11:35:37;17.48;;;14.43;;
23684;SDS011;12020;51.384;6.908;2023-05-10T11:38:05;16.80;;;14.37;;
23684;SDS011;12020;51.384;6.908;2023-05-10T11:40:36;18.70;;;15.20;;
23684;SDS011;12020;51.384;6.908;2023-05-10T11:43:02;16.67;;;14.90;;
23684;SDS011;12020;51.384;6.908;2023-05-10T11:45:29;16.02;;;13.57;;
23684;SDS011;12020;51.384;6.908;2023-05-10T11:47:58;16.23;;;13.77;;
23684;SDS011;12020;51.384;6.908;2023-05-10T11:50:25;17.92;;;13.88;;
23684;SDS011;12020;51.384;6.908;2023-05-10T11:52:52;16.30;;;13.57;;
23684;SDS011;12020;51.384;6.908;2023-05-10T11:55:19;14.73;;;13.23;;
23684;SDS011;12020;51.384;6.908;2023-05-10T11:57:45;18.75;;;13.52;;
23684;SDS011;12020;51.384;6.908;2023-05-10T12:00:15;16.45;;;13.07;;
23684;SDS011;12020;51.384;6.908;2023-05-10T12:02:41;15.00;;;13.38;;
23684;SDS011;12020;51.384;6.908;2023-05-10T12:05:07;15.80;;;13.88;;
23684;SDS011;12020;51.384;6.908;2023-05-10T12:07:35;16.10;;;14.30;;
23684;SDS011;12020;51.384;6.908;2023-05-10T12:12:42;16.25;;;14.65;;
23684;SDS011;12020;51.384;6.908;2023-05-10T12:15:16;16.13;;;14.33;;
23684;SDS011;12020;51.384;6.908;2023-05-10T12:17:45;15.50;;;13.70;;
23684;SDS011;12020;51.384;6.908;2023-05-10T12:20:18;16.38;;;14.60;;
23684;SDS011;12020;51.384;6.908;2023-05-10T12:22:50;16.88;;;15.15;;
23684;SDS011;12020;51.384;6.908;2023-05-10T12:25:18;14.43;;;12.93;;
23684;SDS011;12020;51.384;6.908;2023-05-10T21:54:21;11.77;;;10.13;;
23684;SDS011;12020;51.384;6.908;2023-05-10T21:56:47;13.27;;;10.93;;
23684;SDS011;12020;51.384;6.908;2023-05-10T21:59:14;14.13;;;11.90;;
23684;SDS011;12020;51.384;6.908;2023-05-10T22:01:40;13.40;;;10.37;;
23684;SDS011;12020;51.384;6.908;2023-05-10T22:04:08;12.60;;;10.30;;
23684;SDS011;12020;51.384;6.908;2023-05-10T22:06:34;13.13;;;11.70;;
23684;SDS011;12020;51.384;6.908;2023-05-10T22:09:00;12.40;;;11.10;;
23684;SDS011;12020;51.384;6.908;2023-05-10T22:11:26;12.47;;;11.17;;
23684;SDS011;12020;51.384;6.908;2023-05-10T22:13:52;14.33;;;11.83;;
23684;SDS011;12020;51.384;6.908;2023-05-10T22:16:17;14.87;;;11.70;;
23684;SDS011;12020;51.384;6.908;2023-05-10T22:18:44;13.87;;;11.27;;
23684;SDS011;12020;51.384;6.908;2023-05-10T22:21:10;15.27;;;12.70;;
23684;SDS011;12020;51.384;6.908;2023-05-10T22:23:35;14.03;;;12.00;;
23684;SDS011;12020;51.384;6.908;2023-05-10T22:26:02;13.97;;;12.47;;
23684;SDS011;12020;51.384;6.908;2023-05-10T22:28:28;14.03;;;11.37;;
23684;SDS011;12020;51.384;6.908;2023-05-10T22:30:54;11.03;;;9.83;;
23684;SDS011;12020;51.384;6.908;2023-05-10T22:33:20;13.37;;;10.80;;
23684;SDS011;12020;51.384;6.908;2023-05-10T22:35:45;12.50;;;11.27;;
23684;SDS011;12020;51.384;6.908;2023-05-10T22:38:12;13.23;;;10.67;;
23684;SDS011;12020;51.384;6.908;2023-05-10T22:40:38;12.97;;;10.70;;
23684;SDS011;12020;51.384;6.908;2023-05-10T22:43:05;13.37;;;10.63;;
23684;SDS011;12020;51.384;6.908;2023-05-10T22:45:32;13.90;;;11.67;;
23684;SDS011;12020;51.384;6.908;2023-05-10T22:47:58;14.57;;;11.53;;
23684;SDS011;12020;51.384;6.908;2023-05-10T22:50:23;13.40;;;12.07;;
23684;SDS011;12020;51.384;6.908;2023-05-10T22:52:49;14.37;;;11.93;;
23684;SDS011;12020;51.384;6.908;2023-05-10T22:55:17;14.00;;;12.33;;
23684;SDS011;12020;51.384;6.908;2023-05-10T22:57:42;12.93;;;11.30;;
23684;SDS011;12020;51.384;6.908;2023-05-10T23:00:08;13.20;;;11.67;;
23684;SDS011;12020;51.384;6.908;2023-05-10T23:02:34;12.77;;;11.43;;
23684;SDS011;12020;51.384;6.908;2023-05-10T23:05:00;15.10;;;11.37;;
23684;SDS011;12020;51.384;6.908;2023-05-10T23:07:26;15.20;;;12.50;;
23684;SDS011;12020;51.384;6.908;2023-05-10T23:09:53;14.17;;;11.50;;
23684;SDS011;12020;51.384;6.908;2023-05-10T23:12:20;13.77;;;11.73;;
23684;SDS011;12020;51.384;6.908;2023-05-10T23:14:45;16.13;;;13.07;;
23684;SDS011;12020;51.384;6.908;2023-05-10T23:17:12;16.93;;;13.03;;
23684;SDS011;12020;51.384;6.908;2023-05-10T23:19:38;16.97;;;14.10;;
23684;SDS011;12020;51.384;6.908;2023-05-10T23:22:03;16.63;;;13.90;;
23684;SDS011;12020;51.384;6.908;2023-05-10T23:24:29;15.93;;;12.60;;
23684;SDS011;12020;51.384;6.908;2023-05-10T23:26:55;16.13;;;13.10;;
23684;SDS011;12020;51.384;6.908;2023-05-10T23:29:21;16.53;;;13.40;;
23684;SDS011;12020;51.384;6.908;2023-05-10T23:31:50;14.40;;;11.30;;
23684;SDS011;12020;51.384;6.908;2023-05-10T23:34:16;15.73;;;11.60;;
23684;SDS011;12020;51.384;6.908;2023-05-10T23:36:41;16.07;;;12.07;;
23684;SDS011;12020;51.384;6.908;2023-05-10T23:39:07;15.80;;;12.33;;
23684;SDS011;12020;51.384;6.908;2023-05-10T23:41:33;15.00;;;12.60;;
23684;SDS011;12020;51.384;6.908;2023-05-10T23:43:59;16.63;;;12.60;;
23684;SDS011;12020;51.384;6.908;2023-05-10T23:46:27;14.47;;;12.97;;
23684;SDS011;12020;51.384;6.908;2023-05-10T23:48:54;15.93;;;12.00;;
23684;SDS011;12020;51.384;6.908;2023-05-10T23:51:20;18.40;;;13.77;;
23684;SDS011;12020;51.384;6.908;2023-05-10T23:53:46;17.60;;;13.10;;
23684;SDS011;12020;51.384;6.908;2023-05-10T23:56:11;20.10;;;13.37;;
23684;SDS011;12020;51.384;6.908;2023-05-10T23:58:37;18.10;;;13.20;;
